Time;durP1;ratioP1;P1;durP2;ratioP2;P2;SDS_P1;SDS_P2;PMS_P1;PMS_P2;Temp;Humidity;BMP_temperature;BMP_pressure;BME280_temperature;BME280_humidity;BME280_pressure;Samples;Min_cycle;Max_cycle;Signal;HPM_P1;HPM_P2
2023/03/16 00:00:52;;;;;;;8.27;1.95;;;4.50;79.10;;;;;;4972123;28;20034;-75
2023/03/16 00:03:18;;;;;;;;;;;4.60;77.20;;;;;;4972378;28;20074;-76
2023/03/16 00:05:45;;;;;;;10.85;2.28;;;4.60;77.40;;;;;;4970820;28;19910;-76
2023/03/16 00:08:11;;;;;;;7.65;1.90;;;4.60;77.40;;;;;;4971828;28;20018;-74
2023/03/16 00:10:37;;;;;;;7.30;2.20;;;4.60;76.90;;;;;;4970503;28;20054;-76
2023/03/16 00:13:03;;;;;;;;;;;4.60;75.80;;;;;;4987859;28;20027;-75
2023/03/16 00:15:29;;;;;;;9.63;2.50;;;4.70;73.40;;;;;;4972443;28;19917;-76
2023/03/16 00:18:06;;;;;;;;;;;4.70;73.60;;;;;;4973575;28;20030;-75
2023/03/16 00:20:32;;;;;;;;;;;4.60;74.30;;;;;;4972448;28;20439;-75
2023/03/16 00:22:58;;;;;;;6.07;1.60;;;4.50;74.40;;;;;;4971468;28;19910;-75
2023/03/16 00:25:24;;;;;;;;;;;4.50;74.40;;;;;;4971328;28;20031;-76
2023/03/16 00:27:49;;;;;;;8.43;2.10;;;4.50;74.20;;;;;;4973806;28;19913;-75
2023/03/16 00:30:15;;;;;;;;;;;4.50;73.60;;;;;;4974493;28;20503;-76
2023/03/16 00:32:41;;;;;;;9.25;2.22;;;4.50;73.20;;;;;;4987757;28;19918;-75
2023/03/16 00:35:07;;;;;;;;;;;4.40;73.80;;;;;;4973847;28;20094;-76
2023/03/16 00:37:32;;;;;;;6.55;1.88;;;4.40;73.90;;;;;;4973692;28;19973;-77
2023/03/16 00:39:58;;;;;;;;;;;4.50;71.70;;;;;;4972369;28;20034;-76
2023/03/16 00:42:28;;;;;;;11.90;1.80;;;4.50;71.80;;;;;;4971722;28;20008;-76
2023/03/16 00:44:57;;;;;;;10.20;1.80;;;4.50;71.80;;;;;;4970894;28;20821;-76
2023/03/16 00:47:28;;;;;;;8.90;2.05;;;4.50;70.00;;;;;;4970981;28;20035;-76
2023/03/16 00:49:54;;;;;;;11.13;2.38;;;4.60;70.80;;;;;;4972012;28;20030;-77
2023/03/16 00:52:22;;;;;;;;;;;4.50;72.20;;;;;;4971752;28;20054;-76
2023/03/16 00:54:48;;;;;;;5.45;1.35;;;4.40;70.60;;;;;;4972956;28;20382;-78
2023/03/16 00:57:20;;;;;;;9.00;1.98;;;4.30;71.90;;;;;;4974899;28;20035;-79
2023/03/16 00:59:46;;;;;;;8.10;1.92;;;4.30;72.30;;;;;;4987727;28;20487;-77
2023/03/16 01:02:14;;;;;;;8.52;1.88;;;4.30;72.60;;;;;;4971811;28;20054;-76
2023/03/16 01:04:40;;;;;;;5.75;1.77;;;4.20;71.80;;;;;;4986314;28;20118;-77
2023/03/16 01:07:06;;;;;;;;;;;4.30;72.20;;;;;;4969840;28;20126;-77
2023/03/16 01:09:35;;;;;;;4.78;1.58;;;4.20;71.80;;;;;;4969585;28;19910;-77
2023/03/16 01:12:06;;;;;;;11.18;2.45;;;4.10;72.50;;;;;;4971127;28;20503;-76
2023/03/16 01:14:33;;;;;;;8.68;1.65;;;4.10;72.70;;;;;;4970892;28;20093;-77
2023/03/16 01:17:00;;;;;;;8.95;2.53;;;4.00;73.50;;;;;;4969427;28;20057;-76
2023/03/16 01:19:26;;;;;;;5.50;2.03;;;3.90;74.00;;;;;;4971083;28;20031;-76
2023/03/16 01:21:52;;;;;;;;;;;4.00;74.20;;;;;;4970048;28;20514;-76
2023/03/16 01:24:18;;;;;;;7.90;2.00;;;3.90;72.80;;;;;;4971033;28;19914;-77
2023/03/16 01:26:44;;;;;;;;;;;3.90;73.00;;;;;;4971428;28;20558;-77
2023/03/16 01:29:11;;;;;;;5.00;1.45;;;3.80;74.00;;;;;;4970655;28;19937;-77
2023/03/16 01:31:37;;;;;;;5.43;1.90;;;3.70;75.10;;;;;;4970810;28;20042;-77
2023/03/16 01:34:03;;;;;;;;;;;3.70;76.30;;;;;;4969469;28;20114;-76
2023/03/16 01:36:30;;;;;;;3.95;1.40;;;3.60;76.90;;;;;;4970850;28;20017;-77
2023/03/16 01:38:56;;;;;;;5.40;1.30;;;3.50;78.50;;;;;;4969410;28;20050;-75
2023/03/16 01:41:22;;;;;;;7.80;1.73;;;3.40;80.20;;;;;;4971075;28;20515;-76
2023/03/16 01:43:47;;;;;;;;;;;3.30;81.50;;;;;;4969775;28;20035;-77
2023/03/16 01:46:17;;;;;;;7.40;2.33;;;3.20;83.90;;;;;;4985989;28;19910;-77
2023/03/16 01:48:55;;;;;;;8.27;2.05;;;3.10;86.10;;;;;;4971224;28;20133;-76
2023/03/16 01:51:44;;;;;;;8.15;1.63;;;3.00;88.40;;;;;;4971259;28;20113;-77
2023/03/16 01:54:20;;;;;;;9.45;2.53;;;2.90;89.50;;;;;;4971489;28;20142;-76
2023/03/16 01:56:54;;;;;;;7.60;1.55;;;3.00;89.60;;;;;;4972722;28;20023;-76
2023/03/16 01:59:23;;;;;;;6.30;1.27;;;3.30;79.70;;;;;;4975051;28;20023;-77
2023/03/16 02:01:50;;;;;;;10.98;2.33;;;3.50;79.30;;;;;;4972400;28;20556;-76
2023/03/16 02:04:29;;;;;;;5.65;1.80;;;3.60;79.30;;;;;;4971069;28;20078;-76
2023/03/16 02:06:56;;;;;;;11.27;1.88;;;3.60;79.50;;;;;;4969622;28;20105;-76
2023/03/16 02:09:24;;;;;;;6.28;1.77;;;3.60;80.10;;;;;;4985611;28;20031;-76
2023/03/16 02:11:52;;;;;;;8.25;1.65;;;3.60;79.70;;;;;;4970702;28;20767;-77
2023/03/16 02:14:17;;;;;;;9.48;1.58;;;3.50;79.20;;;;;;4969267;28;20396;-76
2023/03/16 02:16:43;;;;;;;;;;;3.40;81.60;;;;;;4971478;28;20114;-76
2023/03/16 02:19:25;;;;;;;3.90;1.70;;;3.40;83.70;;;;;;4985580;28;19974;-76
2023/03/16 02:22:01;;;;;;;4.85;1.17;;;3.30;86.10;;;;;;4969563;28;20560;-77
2023/03/16 02:24:27;;;;;;;8.45;1.90;;;3.20;89.30;;;;;;4969668;28;20034;-77
2023/03/16 02:26:55;;;;;;;;;;;3.10;91.00;;;;;;4987387;28;20506;-76
2023/03/16 02:29:42;;;;;;;11.15;2.10;;;3.00;92.10;;;;;;4986695;28;19910;-76
2023/03/16 02:32:09;;;;;;;5.00;1.63;;;2.90;93.00;;;;;;4972254;28;20470;-77
2023/03/16 02:34:35;;;;;;;14.98;4.10;;;2.80;93.70;;;;;;4972012;28;20031;-77
2023/03/16 02:37:01;;;;;;;;;;;2.70;95.10;;;;;;4972973;28;20393;-76
2023/03/16 02:39:27;;;;;;;10.65;1.73;;;2.70;95.80;;;;;;4970444;28;19964;-76
2023/03/16 02:41:52;;;;;;;;;;;2.60;95.70;;;;;;4971726;28;20038;-77
2023/03/16 02:44:24;;;;;;;12.23;1.40;;;2.60;96.10;;;;;;4971262;28;19916;-76
2023/03/16 02:46:54;;;;;;;8.35;1.48;;;2.60;96.70;;;;;;4974411;28;20712;-76
2023/03/16 02:49:33;;;;;;;9.07;1.60;;;2.60;96.50;;;;;;4973852;28;20030;-76
2023/03/16 02:51:58;;;;;;;7.88;1.77;;;2.60;94.90;;;;;;4974133;28;20093;-76
2023/03/16 02:54:24;;;;;;;;;;;2.60;95.30;;;;;;4975676;28;20055;-77
2023/03/16 02:56:50;;;;;;;7.32;1.77;;;2.50;95.60;;;;;;4974733;28;19913;-77
2023/03/16 02:59:16;;;;;;;12.18;2.58;;;2.50;96.70;;;;;;4974720;28;20082;-76
2023/03/16 03:01:42;;;;;;;7.43;2.22;;;2.50;96.40;;;;;;4973604;28;20057;-76
2023/03/16 03:04:07;;;;;;;;;;;2.40;96.40;;;;;;4990503;28;20058;-76
2023/03/16 03:06:33;;;;;;;5.80;1.63;;;2.40;97.20;;;;;;4974643;28;19906;-76
2023/03/16 03:09:00;;;;;;;;;;;2.40;96.80;;;;;;4974643;28;20101;-75
2023/03/16 03:11:26;;;;;;;7.88;1.85;;;2.50;95.70;;;;;;4988961;28;19957;-76
2023/03/16 03:13:52;;;;;;;;;;;2.50;95.40;;;;;;4974412;28;20069;-77
2023/03/16 03:16:18;;;;;;;7.07;1.52;;;2.60;95.10;;;;;;4974181;28;20374;-76
2023/03/16 03:18:56;;;;;;;;;;;2.70;92.90;;;;;;4975201;28;20097;-76
2023/03/16 03:21:22;;;;;;;;;;;2.70;92.50;;;;;;4990005;28;19909;-76
2023/03/16 03:23:49;;;;;;;11.40;1.80;;;2.70;93.50;;;;;;4974608;28;19917;-77
2023/03/16 03:26:15;;;;;;;9.40;2.35;;;2.80;91.50;;;;;;4975874;28;20671;-77
2023/03/16 03:28:41;;;;;;;6.60;1.80;;;2.80;92.00;;;;;;4977609;28;20031;-76
2023/03/16 03:31:11;;;;;;;;;;;2.80;92.50;;;;;;4974090;28;20411;-77
2023/03/16 03:33:37;;;;;;;6.60;1.50;;;2.70;93.00;;;;;;4972427;28;19910;-77
2023/03/16 03:36:03;;;;;;;;;;;2.60;93.40;;;;;;4973786;28;20034;-76
2023/03/16 03:38:28;;;;;;;9.55;2.15;;;2.60;93.50;;;;;;4973645;28;19921;-77
2023/03/16 03:40:58;;;;;;;;;;;2.50;93.80;;;;;;4978384;28;20022;-77
2023/03/16 03:43:25;;;;;;;8.52;1.58;;;2.50;94.60;;;;;;4978889;28;19906;-77
2023/03/16 03:45:56;;;;;;;7.78;1.40;;;2.50;95.10;;;;;;4974687;28;20042;-77
2023/03/16 03:48:23;;;;;;;9.88;2.47;;;2.50;96.30;;;;;;4974149;28;20113;-76
2023/03/16 03:50:49;;;;;;;19.48;3.58;;;2.40;96.20;;;;;;4972206;28;20039;-76
2023/03/16 03:53:15;;;;;;;;;;;2.40;96.90;;;;;;4972335;28;20061;-75
2023/03/16 03:55:41;;;;;;;8.43;2.17;;;2.40;96.00;;;;;;4971697;28;20381;-76
2023/03/16 03:58:06;;;;;;;;;;;2.50;96.00;;;;;;4972722;28;20026;-75
2023/03/16 04:00:32;;;;;;;10.45;2.05;;;2.50;95.40;;;;;;4973461;28;20012;-75
2023/03/16 04:02:58;;;;;;;;;;;2.50;95.60;;;;;;4972303;28;20098;-75
2023/03/16 04:05:26;;;;;;;8.98;2.92;;;2.50;95.80;;;;;;4973678;28;20586;-76
2023/03/16 04:07:56;;;;;;;11.30;3.60;;;2.60;96.00;;;;;;4973522;28;20023;-76
2023/03/16 04:10:31;;;;;;;11.52;3.72;;;2.60;95.80;;;;;;4973151;28;20039;-76
2023/03/16 04:12:57;;;;;;;12.13;3.30;;;2.60;95.40;;;;;;4973115;28;20023;-76
2023/03/16 04:15:23;;;;;;;6.28;2.05;;;2.60;96.80;;;;;;4971868;28;20414;-75
2023/03/16 04:17:51;;;;;;;5.35;1.60;;;2.50;96.90;;;;;;4971549;28;20065;-76
2023/03/16 04:20:18;;;;;;;7.68;1.48;;;2.40;97.60;;;;;;4971872;28;20118;-75
2023/03/16 04:22:48;;;;;;;10.30;2.55;;;2.30;98.60;;;;;;4989376;28;20443;-75
2023/03/16 04:25:16;;;;;;;8.63;1.65;;;2.20;99.90;;;;;;4972410;28;20049;-76
2023/03/16 04:27:42;;;;;;;9.02;1.33;;;2.10;99.90;;;;;;4973504;28;20050;-76
2023/03/16 04:30:11;;;;;;;7.25;1.83;;;2.10;99.90;;;;;;4975001;28;20031;-76
2023/03/16 04:32:37;;;;;;;7.30;1.13;;;2.00;99.90;;;;;;4974759;28;20034;-76
2023/03/16 04:35:04;;;;;;;9.27;2.42;;;2.00;99.90;;;;;;4974594;28;20041;-76
2023/03/16 04:37:30;;;;;;;9.30;1.40;;;1.90;99.90;;;;;;4973457;28;20031;-76
2023/03/16 04:39:55;;;;;;;;;;;1.90;99.90;;;;;;4974389;28;20113;-75
2023/03/16 04:42:22;;;;;;;7.72;1.85;;;1.80;99.90;;;;;;4973509;28;19913;-76
2023/03/16 04:44:48;;;;;;;8.13;1.73;;;1.80;99.90;;;;;;4974018;28;20038;-76
2023/03/16 04:47:15;;;;;;;;;;;1.80;99.90;;;;;;4973065;28;20026;-77
2023/03/16 04:49:41;;;;;;;8.93;1.52;;;1.80;99.90;;;;;;4989341;28;19937;-77
2023/03/16 04:52:07;;;;;;;5.60;1.65;;;1.80;99.90;;;;;;4975123;28;20458;-77
2023/03/16 04:54:33;;;;;;;7.90;2.10;;;1.80;99.90;;;;;;4975838;28;20058;-76
2023/03/16 04:56:59;;;;;;;;;;;1.90;99.90;;;;;;4990019;28;20037;-76
2023/03/16 04:59:26;;;;;;;7.63;2.17;;;1.80;99.90;;;;;;4972681;28;19965;-77
2023/03/16 05:01:52;;;;;;;11.52;1.95;;;1.90;99.90;;;;;;4971337;28;20058;-76
2023/03/16 05:04:18;;;;;;;14.07;2.95;;;1.80;99.90;;;;;;4973309;28;20050;-77
2023/03/16 05:06:43;;;;;;;;;;;1.80;99.90;;;;;;4989848;28;20073;-76
2023/03/16 05:09:09;;;;;;;9.18;1.90;;;1.80;99.90;;;;;;4971190;28;19913;-77
2023/03/16 05:11:35;;;;;;;;;;;1.80;99.90;;;;;;4971942;28;20042;-77
2023/03/16 05:14:01;;;;;;;9.00;2.60;;;1.80;99.90;;;;;;4986963;28;20283;-77
2023/03/16 05:16:27;;;;;;;;;;;1.80;99.90;;;;;;4971816;28;20030;-76
2023/03/16 05:18:53;;;;;;;11.15;2.78;;;1.80;99.90;;;;;;4973032;28;20394;-76
2023/03/16 05:21:19;;;;;;;;;;;1.80;99.90;;;;;;4973363;28;20043;-77
2023/03/16 05:23:45;;;;;;;9.75;2.70;;;1.70;99.90;;;;;;4971394;28;19910;-77
2023/03/16 05:26:12;;;;;;;;;;;1.70;99.90;;;;;;4973057;28;20377;-76
2023/03/16 05:28:38;;;;;;;10.50;2.00;;;1.70;99.90;;;;;;4972447;28;19910;-76
2023/03/16 05:31:04;;;;;;;11.52;2.30;;;1.70;99.90;;;;;;4986707;28;20173;-77
2023/03/16 05:33:30;;;;;;;;;;;1.80;99.90;;;;;;4987463;28;20147;-76
2023/03/16 05:35:56;;;;;;;9.95;1.65;;;1.80;99.90;;;;;;4972050;28;19906;-76
2023/03/16 05:38:23;;;;;;;8.10;1.83;;;1.90;99.90;;;;;;4970634;28;20443;-75
2023/03/16 05:40:51;;;;;;;10.25;2.20;;;2.10;99.90;;;;;;4986564;28;20042;-77
2023/03/16 05:43:19;;;;;;;7.35;1.73;;;2.20;99.90;;;;;;4971007;28;20030;-77
2023/03/16 05:45:45;;;;;;;11.93;2.33;;;2.30;99.90;;;;;;4971504;28;20044;-75
2023/03/16 05:48:10;;;;;;;;;;;2.40;99.90;;;;;;4986459;28;20491;-77
2023/03/16 05:50:36;;;;;;;8.88;3.05;;;2.50;99.90;;;;;;4985833;28;19961;-75
2023/03/16 05:53:03;;;;;;;;;;;2.70;99.90;;;;;;4970942;28;20074;-74
2023/03/16 05:55:29;;;;;;;13.40;3.97;;;2.80;98.60;;;;;;4970737;28;19953;-74
2023/03/16 05:57:55;;;;;;;11.77;3.53;;;3.00;96.80;;;;;;4969617;28;20270;-75
2023/03/16 06:00:21;;;;;;;;;;;3.30;93.70;;;;;;4969339;28;20554;-74
2023/03/16 06:02:50;;;;;;;9.00;2.20;;;3.60;93.30;;;;;;4970354;28;20005;-74
2023/03/16 06:05:18;;;;;;;9.02;2.42;;;4.00;91.40;;;;;;4968789;28;20022;-76
2023/03/16 06:07:44;;;;;;;10.25;2.67;;;4.30;91.10;;;;;;4969116;28;20070;-76
2023/03/16 06:10:10;;;;;;;;;;;4.70;89.60;;;;;;4970800;28;20521;-75
2023/03/16 06:12:36;;;;;;;10.07;4.00;;;5.10;85.80;;;;;;4985197;28;20017;-75
2023/03/16 06:15:02;;;;;;;9.18;2.30;;;5.40;84.10;;;;;;4984941;28;20492;-75
2023/03/16 06:17:28;;;;;;;9.07;3.58;;;5.80;81.00;;;;;;4969605;28;20070;-75
2023/03/16 06:19:54;;;;;;;;;;;6.10;73.40;;;;;;4970709;28;20435;-76
2023/03/16 06:22:19;;;;;;;8.43;2.58;;;6.60;70.70;;;;;;4972313;28;19998;-77
2023/03/16 06:24:45;;;;;;;;;;;7.00;68.40;;;;;;4989309;28;20550;-76
2023/03/16 06:27:11;;;;;;;12.27;4.05;;;7.50;65.50;;;;;;4972467;28;19914;-80
2023/03/16 06:29:37;;;;;;;;;;;8.00;65.50;;;;;;4974143;28;20518;-79
2023/03/16 06:32:03;;;;;;;10.02;3.20;;;8.50;61.80;;;;;;4988992;28;19922;-78
2023/03/16 06:34:28;;;;;;;;;;;9.10;60.40;;;;;;4972470;28;20026;-77
2023/03/16 06:36:54;;;;;;;9.88;3.05;;;9.50;59.20;;;;;;4972078;28;19914;-76
2023/03/16 06:39:20;;;;;;;;;;;10.00;57.10;;;;;;4973955;28;20054;-75
2023/03/16 06:41:45;;;;;;;10.02;3.92;;;10.60;54.80;;;;;;4973508;28;19910;-73
2023/03/16 06:44:11;;;;;;;;;;;11.00;52.50;;;;;;4974026;28;20395;-72
2023/03/16 06:46:37;;;;;;;9.45;3.50;;;11.60;51.00;;;;;;4972003;28;19906;-76
2023/03/16 06:49:03;;;;;;;6.78;2.42;;;12.10;50.20;;;;;;4973292;28;20452;-75
2023/03/16 06:51:30;;;;;;;9.73;3.15;;;12.60;48.40;;;;;;4973068;28;20042;-75
2023/03/16 06:53:56;;;;;;;10.57;3.10;;;13.10;47.80;;;;;;4973342;28;20094;-75
2023/03/16 06:56:22;;;;;;;7.07;2.00;;;13.50;47.00;;;;;;4973402;28;20042;-76
2023/03/16 06:58:48;;;;;;;;;;;14.00;45.90;;;;;;4973854;28;20578;-77
2023/03/16 07:01:13;;;;;;;4.82;2.15;;;14.00;44.70;;;;;;4973088;28;19914;-76
2023/03/16 07:03:40;;;;;;;7.82;2.60;;;14.30;45.00;;;;;;4972939;28;20035;-76
2023/03/16 07:06:07;;;;;;;7.78;2.72;;;14.80;43.90;;;;;;4988124;28;20109;-76
2023/03/16 07:08:33;;;;;;;9.70;2.42;;;14.70;42.70;;;;;;4971846;28;20039;-76
2023/03/16 07:10:59;;;;;;;5.97;2.03;;;15.10;43.00;;;;;;4972642;28;20133;-75
2023/03/16 07:13:24;;;;;;;10.10;3.88;;;15.20;42.50;;;;;;4973183;28;20034;-76
2023/03/16 07:15:51;;;;;;;9.98;3.97;;;15.70;40.40;;;;;;4987813;28;20027;-76
2023/03/16 07:18:17;;;;;;;5.57;2.45;;;15.90;39.60;;;;;;4971413;28;20057;-75
2023/03/16 07:20:43;;;;;;;5.30;1.73;;;15.30;39.60;;;;;;4971673;28;20122;-77
2023/03/16 07:23:09;;;;;;;4.53;1.80;;;15.60;38.40;;;;;;4987616;28;20130;-76
2023/03/16 07:25:35;;;;;;;7.55;2.60;;;15.80;37.50;;;;;;4971360;28;20038;-76
2023/03/16 07:28:02;;;;;;;5.85;1.60;;;16.10;37.80;;;;;;4971237;28;20027;-76
2023/03/16 07:30:28;;;;;;;4.75;1.67;;;16.00;36.90;;;;;;4972190;28;20118;-75
2023/03/16 07:32:54;;;;;;;5.93;2.25;;;16.20;37.10;;;;;;4972478;28;20131;-75
2023/03/16 07:35:21;;;;;;;7.13;2.13;;;16.40;37.20;;;;;;4972194;28;20096;-77
2023/03/16 07:37:47;;;;;;;6.43;1.55;;;16.90;34.50;;;;;;4972514;28;20525;-74
2023/03/16 07:40:13;;;;;;;5.80;1.67;;;16.70;33.70;;;;;;4971345;28;20125;-76
2023/03/16 07:42:39;;;;;;;5.72;2.45;;;17.30;32.80;;;;;;4972555;28;20411;-77
2023/03/16 07:45:06;;;;;;;9.50;2.03;;;17.60;33.60;;;;;;4971019;28;20073;-77
2023/03/16 07:47:32;;;;;;;6.43;1.70;;;18.00;32.90;;;;;;4972281;28;20102;-75
2023/03/16 07:49:58;;;;;;;6.13;1.58;;;17.20;32.50;;;;;;4970782;28;20082;-75
2023/03/16 07:52:24;;;;;;;4.45;1.30;;;17.40;31.80;;;;;;4970730;28;20054;-75
2023/03/16 07:54:50;;;;;;;6.85;1.40;;;17.70;31.30;;;;;;4971919;28;20038;-75
2023/03/16 07:57:16;;;;;;;5.25;1.40;;;17.00;31.20;;;;;;4970645;28;20037;-75
2023/03/16 07:59:42;;;;;;;3.25;1.20;;;16.70;32.20;;;;;;4972331;28;20073;-75
2023/03/16 08:02:17;;;;;;;8.23;1.88;;;16.60;30.60;;;;;;4972409;28;20377;-74
2023/03/16 08:04:43;;;;;;;3.72;1.10;;;15.60;32.40;;;;;;4972402;28;20045;-76
2023/03/16 08:07:11;;;;;;;3.38;1.50;;;15.70;32.30;;;;;;4970572;28;20034;-75
2023/03/16 08:09:36;;;;;;;4.85;1.58;;;15.60;34.40;;;;;;4972076;28;20399;-75
2023/03/16 08:12:03;;;;;;;6.18;1.58;;;15.80;34.40;;;;;;4972050;28;20058;-75
2023/03/16 08:14:32;;;;;;;5.38;1.52;;;15.90;33.10;;;;;;4986921;28;20460;-75
2023/03/16 08:16:59;;;;;;;3.40;1.05;;;15.70;34.10;;;;;;4970341;28;20031;-75
2023/03/16 08:19:32;;;;;;;5.43;1.50;;;16.40;32.60;;;;;;4970692;28;20482;-76
2023/03/16 08:22:00;;;;;;;4.82;1.27;;;16.30;33.90;;;;;;4971867;28;20440;-75
2023/03/16 08:24:26;;;;;;;8.13;1.70;;;16.70;32.60;;;;;;4970406;28;20031;-75
2023/03/16 08:26:52;;;;;;;4.10;1.67;;;16.70;32.20;;;;;;4971674;28;20078;-75
2023/03/16 08:29:18;;;;;;;4.43;1.30;;;16.50;32.80;;;;;;4986366;28;20054;-75
2023/03/16 08:31:44;;;;;;;6.57;1.60;;;16.50;32.10;;;;;;4969965;28;20050;-75
2023/03/16 08:34:10;;;;;;;4.65;1.55;;;16.50;32.00;;;;;;4971440;28;20366;-75
2023/03/16 08:36:36;;;;;;;6.05;1.70;;;16.00;32.80;;;;;;4970987;28;20085;-75
2023/03/16 08:39:04;;;;;;;6.03;1.63;;;15.90;33.40;;;;;;4971239;28;20162;-75
2023/03/16 08:41:31;;;;;;;5.47;1.60;;;15.80;32.40;;;;;;4971326;28;20117;-76
2023/03/16 08:43:58;;;;;;;4.80;1.70;;;15.30;32.30;;;;;;4970019;28;20399;-75
2023/03/16 08:46:23;;;;;;;6.25;1.55;;;15.00;34.50;;;;;;4986024;28;20185;-75
2023/03/16 08:48:49;;;;;;;5.68;1.40;;;15.30;33.10;;;;;;4971315;28;20110;-75
2023/03/16 08:51:16;;;;;;;5.75;1.20;;;15.20;33.40;;;;;;4969724;28;20042;-75
2023/03/16 08:53:43;;;;;;;4.88;1.40;;;15.30;34.10;;;;;;4969844;28;20083;-75
2023/03/16 08:56:11;;;;;;;4.95;1.35;;;15.50;32.80;;;;;;4969906;28;20037;-76
2023/03/16 08:58:44;;;;;;;5.70;1.30;;;15.40;33.10;;;;;;4970139;28;20499;-78
2023/03/16 09:01:13;;;;;;;2.80;1.20;;;16.00;32.70;;;;;;4971122;28;20039;-75
2023/03/16 09:03:44;;;;;;;5.07;1.30;;;16.20;30.70;;;;;;4971139;28;20076;-74
2023/03/16 09:06:12;;;;;;;3.63;1.15;;;16.10;32.40;;;;;;4971012;28;20031;-74
2023/03/16 09:08:38;;;;;;;4.65;1.13;;;16.30;30.50;;;;;;4969720;28;20035;-77
2023/03/16 09:11:09;;;;;;;3.38;0.90;;;16.20;30.40;;;;;;4969332;28;20038;-77
2023/03/16 09:13:44;;;;;;;3.67;1.13;;;15.80;30.90;;;;;;4971575;28;20057;-76
2023/03/16 09:16:11;;;;;;;5.05;1.70;;;15.80;30.60;;;;;;4970178;28;20030;-78
2023/03/16 09:18:38;;;;;;;3.53;1.17;;;15.80;29.90;;;;;;4970916;28;20027;-79
2023/03/16 09:21:06;;;;;;;6.18;1.58;;;15.90;29.30;;;;;;4969651;28;20026;-76
2023/03/16 09:23:33;;;;;;;5.25;1.05;;;15.80;28.80;;;;;;4970635;28;20393;-75
2023/03/16 09:26:01;;;;;;;5.95;1.38;;;15.60;29.20;;;;;;4970823;28;20035;-75
2023/03/16 09:28:29;;;;;;;3.75;1.20;;;15.00;29.50;;;;;;4969310;28;20058;-75
2023/03/16 09:30:56;;;;;;;7.25;1.60;;;15.10;30.20;;;;;;4970687;28;20038;-74
2023/03/16 09:33:23;;;;;;;4.68;1.27;;;15.30;30.50;;;;;;4970751;28;20035;-76
2023/03/16 09:35:50;;;;;;;4.35;1.88;;;15.40;32.00;;;;;;4970490;28;20443;-75
2023/03/16 09:38:19;;;;;;;5.45;1.63;;;15.80;30.90;;;;;;4970441;28;20023;-75
2023/03/16 09:40:50;;;;;;;2.50;1.00;;;16.10;29.70;;;;;;4970163;28;20169;-76
2023/03/16 09:43:42;;;;;;;3.13;0.85;;;16.00;28.80;;;;;;4969109;28;20390;-77
2023/03/16 09:46:21;;;;;;;7.50;1.20;;;15.70;29.70;;;;;;4970396;28;20038;-76
2023/03/16 09:48:47;;;;;;;5.55;1.13;;;15.20;29.40;;;;;;4969118;28;20031;-77
2023/03/16 09:51:27;;;;;;;2.35;0.80;;;14.90;29.40;;;;;;4970067;28;20504;-76
2023/03/16 09:54:00;;;;;;;1.95;0.80;;;14.80;29.70;;;;;;4985238;28;20507;-75
2023/03/16 09:56:36;;;;;;;2.45;0.70;;;14.70;29.50;;;;;;4974330;28;20426;-74
2023/03/16 09:59:10;;;;;;;3.58;1.13;;;14.50;29.60;;;;;;4973882;28;20054;-76
2023/03/16 10:02:00;;;;;;;3.03;1.00;;;14.30;30.80;;;;;;4974172;28;20515;-76
2023/03/16 10:04:44;;;;;;;3.90;1.30;;;14.60;29.70;;;;;;4989198;28;20010;-73
2023/03/16 10:07:11;;;;;;;2.85;0.85;;;14.60;30.50;;;;;;4988990;28;20507;-73
2023/03/16 10:09:53;;;;;;;5.05;1.05;;;14.50;30.40;;;;;;4974211;28;20034;-73
2023/03/16 10:12:20;;;;;;;7.20;1.42;;;14.50;30.60;;;;;;4972593;28;20097;-77
2023/03/16 10:14:57;;;;;;;3.60;1.23;;;14.50;31.00;;;;;;4972882;28;20558;-76
2023/03/16 10:17:32;;;;;;;5.75;1.20;;;14.90;31.80;;;;;;4973064;28;20111;-76
2023/03/16 10:20:21;;;;;;;4.35;1.35;;;15.20;30.80;;;;;;4972785;28;20394;-77
2023/03/16 10:22:51;;;;;;;4.28;1.38;;;15.20;31.00;;;;;;4971102;28;20050;-76
2023/03/16 10:25:29;;;;;;;4.38;1.70;;;15.50;30.90;;;;;;4973867;28;20428;-76
2023/03/16 10:27:56;;;;;;;5.22;1.08;;;15.70;30.40;;;;;;4972524;28;20038;-76
2023/03/16 10:30:29;;;;;;;3.05;0.80;;;15.90;29.80;;;;;;4973897;28;20031;-74
2023/03/16 10:33:00;;;;;;;2.58;0.77;;;15.60;30.10;;;;;;4988590;28;20074;-74
2023/03/16 10:35:37;;;;;;;3.55;1.10;;;15.40;30.10;;;;;;4973715;28;20015;-77
2023/03/16 10:38:03;;;;;;;5.75;2.15;;;15.00;30.50;;;;;;4988558;28;20063;-76
2023/03/16 10:40:37;;;;;;;3.10;1.13;;;14.50;30.60;;;;;;4972196;28;20027;-74
2023/03/16 10:43:11;;;;;;;5.13;1.00;;;13.70;31.90;;;;;;4972033;28;20455;-77
2023/03/16 10:45:37;;;;;;;4.10;1.40;;;12.80;31.50;;;;;;4972208;28;20443;-77
2023/03/16 10:48:13;;;;;;;;;;;12.00;33.20;;;;;;4973946;28;20026;-74
2023/03/16 10:50:41;;;;;;;3.85;1.13;;;11.40;32.00;;;;;;4973362;28;19918;-75
2023/03/16 10:53:27;;;;;;;2.25;0.85;;;11.00;33.30;;;;;;4971748;28;20538;-74
2023/03/16 10:56:01;;;;;;;5.25;1.23;;;10.70;33.00;;;;;;4973725;28;20034;-76
2023/03/16 10:58:32;;;;;;;3.63;1.48;;;10.40;34.50;;;;;;4971061;28;20026;-74
2023/03/16 11:00:59;;;;;;;5.43;1.35;;;10.20;34.40;;;;;;4970957;28;20623;-78
2023/03/16 11:03:31;;;;;;;6.97;2.55;;;10.10;33.60;;;;;;4971674;28;20099;-76
2023/03/16 11:05:59;;;;;;;4.65;1.13;;;9.90;34.20;;;;;;4971918;28;20077;-76
2023/03/16 11:08:30;;;;;;;6.43;1.25;;;9.90;35.20;;;;;;4972995;28;20529;-77
2023/03/16 11:10:58;;;;;;;4.47;1.10;;;9.70;33.60;;;;;;4971686;28;20042;-78
2023/03/16 11:13:33;;;;;;;4.80;0.95;;;9.80;34.00;;;;;;4972816;28;20110;-77
2023/03/16 11:16:15;;;;;;;5.03;1.02;;;9.70;32.70;;;;;;4971962;28;20027;-78
2023/03/16 11:18:44;;;;;;;4.35;1.00;;;9.50;34.50;;;;;;4988002;28;20047;-76
2023/03/16 11:21:40;;;;;;;4.72;0.80;;;9.60;34.70;;;;;;4972697;28;20521;-75
2023/03/16 11:24:16;;;;;;;8.40;0.82;;;9.70;34.80;;;;;;4953355;28;20054;-75
2023/03/16 11:26:44;;;;;;;5.63;0.90;;;9.60;35.70;;;;;;4971501;28;20041;-76
2023/03/16 11:29:39;;;;;;;3.40;0.73;;;9.70;34.80;;;;;;4970982;28;20038;-76
2023/03/16 11:32:13;;;;;;;4.75;1.13;;;9.70;34.20;;;;;;4972601;28;20407;-77
2023/03/16 11:34:39;;;;;;;3.47;0.73;;;9.70;35.40;;;;;;4971425;28;20023;-76
2023/03/16 11:37:26;;;;;;;6.85;1.60;;;9.80;35.10;;;;;;4972666;28;20061;-77
2023/03/16 11:40:15;;;;;;;6.07;1.10;;;9.80;35.30;;;;;;4972525;28;20027;-77
2023/03/16 11:42:52;;;;;;;5.20;1.73;;;9.80;35.10;;;;;;4972397;28;20510;-77
2023/03/16 11:45:41;;;;;;;5.32;1.38;;;9.60;34.90;;;;;;4987186;28;20035;-78
2023/03/16 11:48:11;;;;;;;7.10;1.80;;;9.60;34.50;;;;;;4987393;28;20081;-77
2023/03/16 11:50:55;;;;;;;3.90;1.23;;;9.50;32.80;;;;;;4972225;28;20125;-77
2023/03/16 11:54:00;;;;;;;4.68;1.05;;;9.50;35.00;;;;;;4987022;28;20057;-77
2023/03/16 11:56:51;;;;;;;4.10;1.13;;;9.70;35.50;;;;;;4972237;28;20039;-76
2023/03/16 11:59:17;;;;;;;7.15;1.95;;;9.90;35.70;;;;;;4970842;28;20093;-77
2023/03/16 12:01:50;;;;;;;;;;;9.90;34.20;;;;;;4987269;28;20039;-81
2023/03/16 12:04:47;;;;;;;5.05;1.80;;;9.80;34.30;;;;;;4972224;28;19916;-78
2023/03/16 12:07:28;;;;;;;4.22;1.25;;;9.80;34.80;;;;;;4970480;28;20030;-76
2023/03/16 12:10:06;;;;;;;4.68;1.00;;;9.80;33.70;;;;;;4972166;28;20555;-76
2023/03/16 12:13:00;;;;;;;5.88;1.38;;;10.00;34.20;;;;;;4971925;28;20062;-78
2023/03/16 12:15:35;;;;;;;4.25;1.15;;;9.90;33.80;;;;;;4970847;28;20034;-77
2023/03/16 12:18:25;;;;;;;5.90;1.40;;;9.80;34.60;;;;;;4970315;28;20027;-77
2023/03/16 12:21:11;;;;;;;2.80;0.88;;;9.80;34.50;;;;;;4964374;28;20035;-77
2023/03/16 12:24:00;;;;;;;2.42;0.90;;;9.80;32.70;;;;;;4972232;28;20506;-77
2023/03/16 12:26:31;;;;;;;3.53;0.90;;;9.90;32.70;;;;;;4970346;28;20027;-78
2023/03/16 12:28:59;;;;;;;2.30;0.88;;;10.00;31.40;;;;;;4971561;28;20027;-77
2023/03/16 12:31:40;;;;;;;6.93;1.73;;;10.00;33.60;;;;;;4971522;28;20035;-76
2023/03/16 12:34:12;;;;;;;4.88;1.00;;;10.00;34.30;;;;;;4971524;28;20115;-76
2023/03/16 12:36:44;;;;;;;4.60;1.27;;;10.10;32.30;;;;;;4986429;28;20057;-77
2023/03/16 12:39:15;;;;;;;3.20;0.88;;;10.10;31.60;;;;;;4971460;28;20038;-77
2023/03/16 12:41:45;;;;;;;10.02;3.58;;;10.00;33.40;;;;;;4971433;28;20023;-78
2023/03/16 12:44:11;;;;;;;4.78;1.17;;;10.20;35.50;;;;;;4986421;28;20029;-76
2023/03/16 12:46:56;;;;;;;3.72;1.10;;;10.30;35.10;;;;;;4986273;28;20117;-77
2023/03/16 12:49:27;;;;;;;4.03;1.08;;;10.40;33.30;;;;;;4970171;28;20081;-77
2023/03/16 12:52:08;;;;;;;4.68;1.10;;;10.40;33.30;;;;;;4970938;28;20424;-76
2023/03/16 12:54:33;;;;;;;6.05;1.77;;;10.20;32.80;;;;;;4971194;28;20518;-76
2023/03/16 12:57:06;;;;;;;;;;;10.10;32.90;;;;;;4970061;28;20027;-77
2023/03/16 12:59:41;;;;;;;5.55;1.00;;;10.00;33.60;;;;;;4969636;28;19910;-77
2023/03/16 13:02:21;;;;;;;5.95;1.20;;;10.00;33.00;;;;;;4971158;28;20026;-78
2023/03/16 13:04:53;;;;;;;6.50;1.65;;;10.00;33.60;;;;;;4971161;28;20037;-78
2023/03/16 13:07:22;;;;;;;4.32;1.00;;;10.10;33.10;;;;;;4969635;28;20041;-79
2023/03/16 13:10:12;;;;;;;7.97;1.08;;;10.20;32.90;;;;;;4970884;28;20364;-77
2023/03/16 13:12:40;;;;;;;4.95;1.38;;;10.30;32.00;;;;;;4969561;28;20594;-77
2023/03/16 13:15:28;;;;;;;5.38;1.58;;;10.40;31.90;;;;;;4969361;28;20105;-79
2023/03/16 13:18:05;;;;;;;6.90;0.88;;;10.40;31.70;;;;;;4970616;28;20044;-78